createdAt,value
2019-05-25T00:01:45.213Z,84.20
2019-05-25T00:04:13.661Z,84.00
2019-05-25T00:06:42.090Z,84.50
2019-05-25T00:09:10.525Z,84.50
2019-05-25T00:11:38.949Z,84.40
2019-05-25T00:14:07.392Z,84.20
2019-05-25T00:16:35.888Z,84.40
2019-05-25T00:19:04.428Z,86.00
2019-05-25T00:21:32.870Z,85.50
2019-05-25T00:24:11.720Z,85.50
2019-05-25T00:26:31.503Z,86.00
2019-05-25T00:29:00.021Z,86.10
2019-05-25T00:31:28.454Z,86.20
2019-05-25T00:33:56.933Z,86.10
2019-05-25T00:36:25.343Z,86.20
2019-05-25T00:38:53.796Z,86.50
2019-05-25T00:41:22.223Z,86.50
2019-05-25T00:43:50.659Z,86.30
2019-05-25T00:46:19.174Z,86.20
2019-05-25T00:48:47.603Z,85.70
2019-05-25T00:51:16.113Z,85.40
2019-05-25T00:53:44.532Z,85.10
2019-05-25T00:56:13.071Z,85.10
2019-05-25T00:58:41.501Z,85.50
2019-05-25T01:01:10.045Z,85.60
2019-05-25T01:03:38.575Z,86.10
2019-05-25T01:06:07.062Z,86.40
2019-05-25T01:08:35.517Z,86.70
2019-05-25T01:11:03.944Z,86.80
2019-05-25T01:13:32.426Z,87.00
2019-05-25T01:16:00.938Z,86.90
2019-05-25T01:18:29.364Z,87.20
2019-05-25T01:20:57.804Z,87.00
2019-05-25T01:23:26.289Z,86.90
2019-05-25T01:25:54.881Z,87.10
2019-05-25T01:28:23.295Z,87.60
2019-05-25T01:30:51.741Z,87.50
2019-05-25T01:33:20.255Z,87.60
2019-05-25T01:35:48.705Z,87.50
2019-05-25T01:38:17.119Z,87.70
2019-05-25T01:40:45.568Z,87.60
2019-05-25T01:43:13.993Z,87.20
2019-05-25T01:45:42.429Z,87.80
2019-05-25T01:48:10.851Z,87.70
2019-05-25T01:50:39.285Z,87.80
2019-05-25T01:53:07.715Z,87.50
2019-05-25T01:55:36.163Z,87.70
2019-05-25T01:58:04.595Z,88.20
2019-05-25T02:00:33.099Z,88.40
2019-05-25T02:03:01.569Z,88.10
2019-05-25T02:05:30.115Z,88.20
2019-05-25T02:07:58.542Z,88.30
2019-05-25T02:10:26.965Z,88.20
2019-05-25T02:12:55.417Z,88.40
2019-05-25T02:15:23.917Z,88.40
2019-05-25T02:17:52.360Z,88.80
2019-05-25T02:20:20.772Z,88.80
2019-05-25T02:22:49.225Z,88.60
2019-05-25T02:25:18.907Z,88.60
2019-05-25T02:27:47.603Z,88.80
2019-05-25T02:30:17.596Z,89.40
2019-05-25T02:32:46.110Z,89.40
2019-05-25T02:35:23.292Z,89.60
2019-05-25T02:37:51.737Z,90.20
2019-05-25T02:40:20.391Z,89.40
2019-05-25T02:42:48.831Z,89.50
2019-05-25T02:45:17.425Z,89.50
2019-05-25T02:47:45.827Z,89.50
2019-05-25T02:50:15.108Z,89.80
2019-05-25T02:52:43.541Z,90.00
2019-05-25T02:55:12.828Z,90.00
2019-05-25T02:57:41.249Z,90.10
2019-05-25T03:00:10.024Z,90.20
2019-05-25T03:02:38.582Z,90.30
2019-05-25T03:05:08.057Z,90.30
2019-05-25T03:07:36.547Z,90.30
2019-05-25T03:10:06.537Z,90.30
2019-05-25T03:12:35.292Z,90.30
2019-05-25T03:15:07.004Z,90.50
2019-05-25T03:17:35.672Z,90.40
2019-05-25T03:20:06.059Z,90.40
2019-05-25T03:22:34.466Z,90.40
2019-05-25T03:25:07.500Z,90.30
2019-05-25T03:27:36.380Z,90.30
2019-05-25T03:30:08.317Z,90.20
2019-05-25T03:32:36.801Z,90.50
2019-05-25T03:35:08.733Z,90.60
2019-05-25T03:37:37.233Z,90.40
2019-05-25T03:40:09.044Z,90.50
2019-05-25T03:42:37.527Z,90.70
2019-05-25T03:45:07.414Z,90.70
2019-05-25T03:47:35.954Z,90.70
2019-05-25T03:50:06.232Z,90.70
2019-05-25T03:52:34.654Z,90.80
2019-05-25T03:55:03.640Z,91.10
2019-05-25T03:57:32.063Z,91.00
2019-05-25T04:00:00.571Z,90.90
2019-05-25T04:02:29.149Z,91.00
2019-05-25T04:04:57.625Z,91.00
2019-05-25T04:07:26.037Z,91.40
2019-05-25T04:09:54.530Z,91.40
2019-05-25T04:12:22.971Z,91.40
2019-05-25T04:14:51.530Z,91.50
2019-05-25T04:17:19.992Z,91.60
2019-05-25T04:19:48.474Z,91.30
2019-05-25T04:22:16.984Z,91.20
2019-05-25T04:24:45.433Z,91.40
2019-05-25T04:27:13.875Z,91.30
2019-05-25T04:29:42.274Z,91.10
2019-05-25T04:32:10.734Z,91.10
2019-05-25T04:34:39.151Z,91.10
2019-05-25T04:37:07.592Z,91.00
2019-05-25T04:39:36.009Z,90.90
2019-05-25T04:42:04.714Z,91.00
2019-05-25T04:44:33.121Z,91.20
2019-05-25T04:47:01.558Z,91.50
2019-05-25T04:49:29.982Z,91.50
2019-05-25T04:51:58.424Z,91.40
2019-05-25T04:54:26.829Z,91.70
2019-05-25T04:56:55.285Z,91.40
2019-05-25T04:59:23.856Z,91.00
2019-05-25T05:01:52.298Z,91.00
2019-05-25T05:04:20.719Z,90.80
2019-05-25T05:06:49.255Z,90.90
2019-05-25T05:09:17.820Z,91.00
2019-05-25T05:11:46.255Z,91.10
2019-05-25T05:14:14.685Z,90.90
2019-05-25T05:16:43.119Z,90.90
2019-05-25T05:19:11.564Z,90.90
2019-05-25T05:21:39.973Z,90.80
2019-05-25T05:24:08.409Z,90.80
2019-05-25T05:26:36.853Z,90.80
2019-05-25T05:29:05.865Z,90.90
2019-05-25T05:31:34.369Z,91.10
2019-05-25T05:34:02.801Z,91.10
2019-05-25T05:36:31.951Z,91.30
2019-05-25T05:39:00.711Z,91.20
2019-05-25T05:41:31.363Z,91.10
2019-05-25T05:44:01.034Z,91.10
2019-05-25T05:46:30.970Z,91.20
2019-05-25T05:49:00.662Z,91.10
2019-05-25T05:51:31.502Z,91.10
2019-05-25T05:54:02.788Z,91.10
2019-05-25T05:56:31.575Z,91.40
2019-05-25T05:59:00.501Z,91.10
2019-05-25T06:01:28.989Z,91.20
2019-05-25T06:03:57.503Z,91.30
2019-05-25T06:06:26.189Z,91.20
2019-05-25T06:08:54.644Z,91.20
2019-05-25T06:11:23.072Z,91.00
2019-05-25T06:13:51.569Z,90.90
2019-05-25T06:16:20.009Z,90.90
2019-05-25T06:18:48.454Z,90.90
2019-05-25T06:21:16.957Z,90.90
2019-05-25T06:23:45.382Z,90.80
2019-05-25T06:26:13.829Z,90.70
2019-05-25T06:28:42.352Z,90.70
2019-05-25T06:31:10.875Z,90.60
2019-05-25T06:33:39.284Z,90.50
2019-05-25T06:36:07.766Z,90.50
2019-05-25T06:38:36.194Z,90.30
2019-05-25T06:41:08.323Z,90.50
2019-05-25T06:43:34.852Z,90.30
2019-05-25T06:46:03.565Z,89.90
2019-05-25T06:48:32.058Z,89.60
2019-05-25T06:51:00.493Z,89.60
2019-05-25T06:53:28.992Z,89.80
2019-05-25T06:55:57.428Z,89.30
2019-05-25T06:58:25.860Z,89.50
2019-05-25T07:00:54.370Z,90.00
2019-05-25T07:03:22.792Z,89.90
2019-05-25T07:05:51.237Z,89.10
2019-05-25T07:08:19.696Z,88.60
2019-05-25T07:10:48.777Z,88.00
2019-05-25T07:13:17.246Z,88.00
2019-05-25T07:15:46.361Z,88.10
2019-05-25T07:18:14.781Z,87.90
2019-05-25T07:20:43.217Z,87.30
2019-05-25T07:23:11.693Z,87.50
2019-05-25T07:25:40.228Z,87.20
2019-05-25T07:28:09.029Z,86.70
2019-05-25T07:30:37.725Z,86.60
2019-05-25T07:33:06.251Z,85.90
2019-05-25T07:35:34.687Z,85.90
2019-05-25T07:40:27.293Z,84.90
2019-05-25T07:42:55.869Z,84.50
2019-05-25T07:45:24.299Z,84.50
2019-05-25T07:47:52.844Z,84.10
2019-05-25T07:50:21.934Z,83.50
2019-05-25T07:52:50.381Z,83.10
2019-05-25T07:55:18.826Z,82.60
2019-05-25T07:57:47.270Z,82.70
2019-05-25T08:00:16.055Z,82.20
2019-05-25T08:02:44.507Z,81.30
2019-05-25T08:05:13.379Z,81.50
2019-05-25T08:07:41.820Z,81.40
2019-05-25T08:10:10.671Z,81.30
2019-05-25T08:12:39.124Z,81.20
2019-05-25T08:15:08.995Z,82.10
2019-05-25T08:17:37.429Z,82.50
2019-05-25T08:20:07.015Z,82.80
2019-05-25T08:22:35.522Z,82.40
2019-05-25T08:25:06.577Z,81.70
2019-05-25T08:27:35.105Z,81.70
2019-05-25T08:30:07.836Z,81.90
2019-05-25T08:32:36.353Z,82.30
2019-05-25T08:35:09.400Z,82.20
2019-05-25T08:37:37.919Z,82.70
2019-05-25T08:40:07.289Z,81.40
2019-05-25T08:42:35.824Z,81.20
2019-05-25T08:45:06.979Z,82.00
2019-05-25T08:47:35.481Z,82.30
2019-05-25T08:50:05.607Z,82.80
2019-05-25T08:52:34.025Z,81.90
2019-05-25T08:55:02.558Z,81.70
2019-05-25T08:57:31.063Z,82.20
2019-05-25T08:59:59.570Z,82.50
2019-05-25T09:02:28.004Z,83.60
2019-05-25T09:04:56.523Z,84.90
2019-05-25T09:07:24.968Z,83.70
2019-05-25T09:09:53.521Z,83.70
2019-05-25T09:12:22.065Z,83.40
2019-05-25T09:14:50.579Z,81.90
2019-05-25T09:17:19.003Z,81.00
2019-05-25T09:19:47.474Z,80.70
2019-05-25T09:22:15.909Z,81.60
2019-05-25T09:24:53.489Z,81.20
2019-05-25T09:27:21.957Z,80.80
2019-05-25T09:29:50.416Z,79.60
2019-05-25T09:32:18.841Z,80.20
2019-05-25T09:34:47.287Z,82.10
2019-05-25T09:37:15.858Z,81.80
2019-05-25T09:39:44.315Z,81.40
2019-05-25T09:42:12.806Z,80.50
2019-05-25T09:44:41.265Z,78.60
2019-05-25T09:47:09.709Z,78.20
2019-05-25T09:49:38.129Z,78.00
2019-05-25T09:52:06.601Z,77.10
2019-05-25T09:54:35.030Z,77.90
2019-05-25T09:57:03.574Z,76.70
2019-05-25T09:59:32.061Z,76.20
2019-05-25T10:02:00.575Z,77.70
2019-05-25T10:04:29.278Z,77.20
2019-05-25T10:06:57.777Z,77.30
2019-05-25T10:09:26.275Z,76.70
2019-05-25T10:11:54.732Z,77.10
2019-05-25T10:14:23.184Z,76.40
2019-05-25T10:16:51.629Z,75.50
2019-05-25T10:19:20.161Z,75.40
2019-05-25T10:21:48.607Z,76.40
2019-05-25T10:24:17.030Z,76.60
2019-05-25T10:26:45.543Z,75.50
2019-05-25T10:29:13.965Z,76.00
2019-05-25T10:31:42.491Z,76.70
2019-05-25T10:34:11.535Z,76.40
2019-05-25T10:36:39.998Z,76.10
2019-05-25T10:39:08.939Z,76.50
2019-05-25T10:41:38.460Z,75.80
2019-05-25T10:44:06.960Z,75.70
2019-05-25T10:46:35.564Z,75.50
2019-05-25T10:49:04.197Z,75.20
2019-05-25T10:51:32.627Z,75.40
2019-05-25T10:54:01.167Z,76.00
2019-05-25T10:56:29.698Z,75.70
2019-05-25T10:58:58.147Z,75.60
2019-05-25T11:01:26.633Z,74.60
2019-05-25T11:03:55.143Z,74.60
2019-05-25T11:06:23.615Z,74.90
2019-05-25T11:08:52.136Z,75.60
2019-05-25T11:11:20.613Z,75.60
2019-05-25T11:13:49.142Z,75.80
2019-05-25T11:16:17.592Z,76.30
2019-05-25T11:18:46.068Z,76.30
2019-05-25T11:21:14.553Z,76.70
2019-05-25T11:23:42.989Z,76.30
2019-05-25T11:26:11.437Z,77.20
2019-05-25T11:28:39.859Z,77.60
2019-05-25T11:31:08.293Z,77.80
2019-05-25T11:33:36.738Z,77.70
2019-05-25T11:36:05.353Z,77.40
2019-05-25T11:38:33.904Z,76.10
2019-05-25T11:41:02.353Z,75.80
2019-05-25T11:43:30.802Z,76.50
2019-05-25T11:45:59.314Z,75.30
2019-05-25T11:48:27.902Z,76.20
2019-05-25T11:50:56.340Z,75.30
2019-05-25T11:53:24.762Z,75.00
2019-05-25T11:55:53.330Z,74.60
2019-05-25T11:58:21.812Z,74.10
2019-05-25T12:00:51.751Z,72.60
2019-05-25T12:03:20.242Z,71.50
2019-05-25T12:05:48.773Z,73.90
2019-05-25T12:08:17.308Z,73.60
2019-05-25T12:10:45.821Z,73.10
2019-05-25T12:13:14.248Z,71.80
2019-05-25T12:15:42.837Z,70.80
2019-05-25T12:18:11.244Z,70.20
2019-05-25T12:20:39.772Z,70.60
2019-05-25T12:23:08.270Z,71.00
2019-05-25T12:25:37.049Z,71.10
2019-05-25T12:28:05.477Z,70.40
2019-05-25T12:30:40.740Z,70.00
2019-05-25T12:33:04.125Z,68.70
2019-05-25T12:35:32.542Z,67.90
2019-05-25T12:38:01.066Z,67.30
2019-05-25T12:40:29.606Z,65.10
2019-05-25T12:42:58.037Z,66.00
2019-05-25T12:45:26.463Z,66.90
2019-05-25T12:47:54.982Z,67.00
2019-05-25T12:50:23.538Z,66.60
2019-05-25T12:52:51.985Z,66.20
2019-05-25T12:55:20.440Z,65.70
2019-05-25T12:57:51.416Z,65.30
2019-05-25T13:00:19.521Z,64.20
2019-05-25T13:02:47.956Z,63.60
2019-05-25T13:05:16.571Z,62.50
2019-05-25T13:07:45.014Z,60.60
2019-05-25T13:10:13.580Z,59.90
2019-05-25T13:12:42.049Z,61.00
2019-05-25T13:15:10.933Z,59.50
2019-05-25T13:17:39.536Z,59.70
2019-05-25T13:20:08.100Z,59.00
2019-05-25T13:22:36.548Z,57.20
2019-05-25T13:25:08.114Z,54.40
2019-05-25T13:27:36.767Z,53.70
2019-05-25T13:30:09.404Z,52.50
2019-05-25T13:32:37.850Z,52.50
2019-05-25T13:35:08.114Z,50.60
2019-05-25T13:37:36.630Z,50.70
2019-05-25T13:40:06.578Z,50.80
2019-05-25T13:42:35.078Z,51.40
2019-05-25T13:45:05.113Z,51.50
2019-05-25T13:47:33.604Z,51.10
2019-05-25T13:50:02.040Z,51.60
2019-05-25T13:52:30.657Z,51.50
2019-05-25T13:54:59.102Z,51.90
2019-05-25T13:57:27.508Z,51.50
2019-05-25T13:59:55.946Z,50.70
2019-05-25T14:02:24.383Z,50.40
2019-05-25T14:04:52.849Z,51.50
2019-05-25T14:07:21.324Z,50.90
2019-05-25T14:09:49.745Z,51.90
2019-05-25T14:12:18.237Z,52.60
2019-05-25T14:14:46.677Z,53.10
2019-05-25T14:17:15.105Z,53.80
2019-05-25T14:19:43.632Z,57.10
2019-05-25T14:22:12.069Z,58.30
2019-05-25T14:24:40.588Z,59.40
2019-05-25T14:27:09.017Z,60.50
2019-05-25T14:29:37.481Z,62.30
2019-05-25T14:32:05.896Z,62.80
2019-05-25T14:34:34.334Z,63.70
2019-05-25T14:37:02.746Z,64.40
2019-05-25T14:39:31.176Z,64.80
2019-05-25T14:41:59.691Z,65.50
2019-05-25T14:44:28.234Z,69.20
2019-05-25T14:46:56.648Z,72.50
2019-05-25T14:49:25.115Z,74.30
2019-05-25T14:51:53.537Z,74.50
2019-05-25T14:54:21.984Z,72.90
2019-05-25T14:56:50.423Z,72.00
2019-05-25T14:59:18.830Z,74.70
2019-05-25T15:02:01.345Z,75.00
2019-05-25T15:04:17.447Z,75.60
2019-05-25T15:06:45.922Z,74.50
2019-05-25T15:09:14.357Z,76.00
2019-05-25T15:11:42.903Z,75.70
2019-05-25T15:14:11.350Z,75.90
2019-05-25T15:16:40.057Z,76.30
2019-05-25T15:19:08.541Z,78.60
2019-05-25T15:21:37.149Z,79.70
2019-05-25T15:24:05.745Z,80.10
2019-05-25T15:26:34.221Z,81.20
2019-05-25T15:29:02.669Z,82.40
2019-05-25T15:31:31.107Z,85.60
2019-05-25T15:33:59.518Z,85.90
2019-05-25T15:36:27.974Z,85.50
2019-05-25T15:38:56.469Z,85.80
2019-05-25T15:41:25.014Z,87.10
2019-05-25T15:43:53.428Z,87.00
2019-05-25T15:46:21.892Z,86.90
2019-05-25T15:48:50.310Z,87.60
2019-05-25T15:51:18.778Z,88.80
2019-05-25T15:53:47.192Z,89.90
2019-05-25T15:56:15.727Z,91.10
2019-05-25T15:58:44.165Z,91.40
2019-05-25T16:01:12.793Z,91.20
2019-05-25T16:03:41.216Z,91.40
2019-05-25T16:06:09.646Z,91.30
2019-05-25T16:08:38.555Z,91.90
2019-05-25T16:11:07.042Z,92.10
2019-05-25T16:13:35.562Z,92.00
2019-05-25T16:16:04.137Z,90.50
2019-05-25T16:18:32.711Z,90.10
2019-05-25T16:21:01.202Z,89.50
2019-05-25T16:23:29.653Z,90.50
2019-05-25T16:25:58.081Z,90.40
2019-05-25T16:28:26.607Z,90.40
2019-05-25T16:30:55.025Z,90.80
2019-05-25T16:33:23.638Z,91.20
2019-05-25T16:35:52.227Z,91.40
2019-05-25T16:38:20.887Z,91.80
2019-05-25T16:40:49.412Z,92.00
2019-05-25T16:43:17.875Z,91.60
2019-05-25T16:45:46.326Z,91.80
2019-05-25T16:48:14.821Z,91.90
2019-05-25T16:50:43.585Z,91.50
2019-05-25T16:53:12.106Z,91.70
2019-05-25T16:55:42.094Z,91.40
2019-05-25T16:58:10.515Z,91.50
2019-05-25T17:00:39.184Z,91.70
2019-05-25T17:03:07.905Z,91.80
2019-05-25T17:05:47.960Z,91.70
2019-05-25T17:08:16.133Z,91.80
2019-05-25T17:10:44.581Z,91.80
2019-05-25T17:13:13.157Z,91.90
2019-05-25T17:15:41.661Z,91.90
2019-05-25T17:18:10.081Z,92.00
2019-05-25T17:20:38.538Z,92.40
2019-05-25T17:23:06.955Z,92.10
2019-05-25T17:25:35.466Z,92.10
2019-05-25T17:28:04.099Z,92.20
2019-05-25T17:30:41.392Z,92.30
2019-05-25T17:33:09.965Z,92.40
2019-05-25T17:35:38.659Z,92.70
2019-05-25T17:38:07.754Z,92.70
2019-05-25T17:40:36.326Z,92.60
2019-05-25T17:43:05.029Z,92.70
2019-05-25T17:45:33.467Z,92.60
2019-05-25T17:48:01.971Z,92.90
2019-05-25T17:50:30.659Z,92.40
2019-05-25T17:52:59.094Z,92.60
2019-05-25T17:55:27.532Z,92.70
2019-05-25T17:57:55.997Z,92.60
2019-05-25T18:00:36.114Z,92.30
2019-05-25T18:03:05.367Z,92.30
2019-05-25T18:05:33.793Z,92.60
2019-05-25T18:08:02.234Z,92.30
2019-05-25T18:10:30.733Z,92.10
2019-05-25T18:12:59.274Z,92.20
2019-05-25T18:15:27.764Z,92.10
2019-05-25T18:17:56.212Z,92.10
2019-05-25T18:20:24.723Z,92.30
2019-05-25T18:22:53.166Z,91.70
2019-05-25T18:25:22.062Z,91.80
2019-05-25T18:27:50.534Z,91.70
2019-05-25T18:30:19.887Z,91.70
2019-05-25T18:32:48.334Z,91.60
2019-05-25T18:35:16.920Z,91.60
2019-05-25T18:37:45.348Z,91.60
2019-05-25T18:40:14.930Z,91.60
2019-05-25T18:42:43.469Z,91.80
2019-05-25T18:45:12.732Z,91.70
2019-05-25T18:47:41.327Z,92.00
2019-05-25T18:50:14.121Z,91.80
2019-05-25T18:52:42.552Z,91.70
2019-05-25T18:55:11.457Z,91.80
2019-05-25T18:57:40.008Z,91.80
2019-05-25T19:00:09.366Z,91.70
2019-05-25T19:02:37.906Z,92.00
2019-05-25T19:05:09.374Z,92.00
2019-05-25T19:07:37.922Z,92.10
2019-05-25T19:10:08.199Z,92.20
2019-05-25T19:12:36.724Z,92.10
2019-05-25T19:15:09.126Z,92.30
2019-05-25T19:17:37.852Z,92.60
2019-05-25T19:20:07.053Z,92.80
2019-05-25T19:22:35.646Z,92.90
2019-05-25T19:25:05.786Z,93.10
2019-05-25T19:27:34.244Z,92.80
2019-05-25T19:30:02.785Z,92.80
2019-05-25T19:32:31.185Z,92.70
2019-05-25T19:35:00.347Z,92.80
2019-05-25T19:37:28.933Z,92.80
2019-05-25T19:39:57.490Z,92.80
2019-05-25T19:42:26.053Z,93.00
2019-05-25T19:44:54.565Z,93.10
2019-05-25T19:47:23.046Z,93.10
2019-05-25T19:49:51.517Z,93.10
2019-05-25T19:52:19.945Z,93.30
2019-05-25T19:54:48.384Z,93.40
2019-05-25T19:57:16.837Z,93.50
2019-05-25T19:59:45.449Z,93.50
2019-05-25T20:02:13.905Z,93.40
2019-05-25T20:04:42.498Z,93.30
2019-05-25T20:07:10.932Z,93.30
2019-05-25T20:09:39.392Z,93.20
2019-05-25T20:12:07.861Z,93.30
2019-05-25T20:14:36.302Z,93.30
2019-05-25T20:17:04.867Z,93.60
2019-05-25T20:19:33.338Z,93.50
2019-05-25T20:22:01.870Z,93.50
2019-05-25T20:24:30.295Z,93.50
2019-05-25T20:27:01.481Z,93.50
2019-05-25T20:29:28.920Z,93.40
2019-05-25T20:31:57.373Z,93.40
2019-05-25T20:34:25.801Z,93.40
2019-05-25T20:36:54.255Z,93.40
2019-05-25T20:39:22.762Z,93.50
2019-05-25T20:41:51.229Z,93.40
2019-05-25T20:44:19.742Z,93.60
2019-05-25T20:46:48.274Z,93.60
2019-05-25T20:49:16.885Z,93.70
2019-05-25T20:51:45.542Z,93.60
2019-05-25T20:54:14.070Z,93.60
2019-05-25T20:56:42.494Z,93.60
2019-05-25T20:59:10.933Z,93.80
2019-05-25T21:01:39.379Z,93.60
2019-05-25T21:04:07.883Z,93.70
2019-05-25T21:06:36.327Z,94.20
2019-05-25T21:09:07.189Z,93.90
2019-05-25T21:11:35.783Z,94.00
2019-05-25T21:14:05.089Z,93.90
2019-05-25T21:16:33.504Z,94.00
2019-05-25T21:19:03.127Z,94.00
2019-05-25T21:21:31.772Z,94.00
2019-05-25T21:24:00.317Z,93.90
2019-05-25T21:26:29.001Z,93.90
2019-05-25T21:28:57.480Z,94.00
2019-05-25T21:31:30.457Z,94.00
2019-05-25T21:33:58.940Z,93.80
2019-05-25T21:36:27.474Z,93.80
2019-05-25T21:38:56.193Z,93.80
2019-05-25T21:41:24.604Z,94.00
2019-05-25T21:43:53.126Z,94.10
2019-05-25T21:46:21.572Z,94.30
2019-05-25T21:48:50.109Z,94.20
2019-05-25T21:51:18.561Z,94.30
2019-05-25T21:53:47.084Z,94.20
2019-05-25T21:56:15.548Z,94.30
2019-05-25T21:58:43.998Z,94.20
2019-05-25T22:01:12.728Z,94.50
2019-05-25T22:03:41.153Z,94.20
2019-05-25T22:06:23.176Z,94.30
2019-05-25T22:08:39.980Z,94.30
2019-05-25T22:11:08.479Z,94.20
2019-05-25T22:13:36.932Z,94.00
2019-05-25T22:16:05.360Z,93.90
2019-05-25T22:18:33.898Z,94.10
2019-05-25T22:21:02.338Z,94.10
2019-05-25T22:23:30.767Z,94.20
2019-05-25T22:25:59.204Z,94.30
2019-05-25T22:28:41.932Z,94.20
2019-05-25T22:30:57.797Z,94.10
2019-05-25T22:33:26.305Z,94.10
2019-05-25T22:35:54.867Z,94.20
2019-05-25T22:38:23.631Z,94.20
2019-05-25T22:40:52.168Z,94.20
2019-05-25T22:43:20.615Z,94.20
2019-05-25T22:45:49.070Z,94.20
2019-05-25T22:48:17.506Z,94.10
2019-05-25T22:50:46.096Z,94.20
2019-05-25T22:53:14.703Z,94.20
2019-05-25T22:55:43.137Z,94.20
2019-05-25T22:58:11.567Z,94.30
2019-05-25T23:00:40.094Z,94.20
2019-05-25T23:03:08.522Z,94.10
2019-05-25T23:05:36.946Z,94.60
2019-05-25T23:08:05.470Z,94.20
2019-05-25T23:10:33.925Z,94.20
2019-05-25T23:13:02.380Z,94.20
2019-05-25T23:15:30.836Z,94.30
2019-05-25T23:17:59.293Z,94.50
2019-05-25T23:20:27.745Z,94.50
2019-05-25T23:22:56.254Z,94.40
2019-05-25T23:25:24.692Z,94.60
2019-05-25T23:27:53.116Z,94.70
2019-05-25T23:30:21.683Z,94.70
2019-05-25T23:32:50.186Z,94.90
2019-05-25T23:35:18.619Z,94.80
2019-05-25T23:37:47.063Z,94.80
2019-05-25T23:40:15.933Z,94.90
2019-05-25T23:42:44.478Z,95.30
2019-05-25T23:45:13.344Z,94.90
2019-05-25T23:47:41.789Z,94.80
2019-05-25T23:50:10.762Z,94.90
2019-05-25T23:52:39.349Z,94.80
2019-05-25T23:55:08.119Z,94.80
2019-05-25T23:57:36.584Z,94.90
